Time;durP1;ratioP1;P1;durP2;ratioP2;P2;SDS_P1;SDS_P2;PMS_P1;PMS_P2;Temp;Humidity;BMP_temperature;BMP_pressure;BME280_temperature;BME280_humidity;BME280_pressure;Samples;Min_cycle;Max_cycle;Signal;HPM_P1;HPM_P2
2021/01/31 00:00:19;;;;;;;9.63;4.03;;;;;;;;;;5083997;28;20052;-65
2021/01/31 00:02:45;;;;;;;6.35;3.90;;;;;;;;;;5082992;28;20028;-65
2021/01/31 00:05:10;;;;;;;10.00;4.35;;;;;;;;;;5083099;28;20024;-64
2021/01/31 00:07:36;;;;;;;7.75;4.10;;;;;;;;;;5083842;28;20459;-64
2021/01/31 00:10:01;;;;;;;6.38;3.85;;;;;;;;;;5083357;28;20055;-65
2021/01/31 00:12:26;;;;;;;7.03;4.10;;;;;;;;;;5081417;28;20153;-64
2021/01/31 00:14:51;;;;;;;6.95;4.45;;;;;;;;;;5084948;28;20024;-64
2021/01/31 00:17:16;;;;;;;6.88;4.03;;;;;;;;;;5083729;28;20019;-64
2021/01/31 00:19:42;;;;;;;7.65;4.13;;;;;;;;;;5086247;28;20067;-64
2021/01/31 00:22:07;;;;;;;7.10;3.78;;;;;;;;;;5085080;28;20490;-64
2021/01/31 00:24:32;;;;;;;7.30;3.97;;;;;;;;;;5085944;28;20100;-65
2021/01/31 00:26:57;;;;;;;8.85;4.57;;;;;;;;;;5086430;28;20851;-65
2021/01/31 00:29:22;;;;;;;7.47;4.25;;;;;;;;;;5084785;28;20024;-65
2021/01/31 00:31:48;;;;;;;8.45;4.35;;;;;;;;;;5086072;28;20028;-65
2021/01/31 00:34:14;;;;;;;7.90;3.97;;;;;;;;;;5084666;28;20357;-65
2021/01/31 00:36:39;;;;;;;8.23;4.30;;;;;;;;;;5084946;28;20024;-64
2021/01/31 00:39:07;;;;;;;7.15;4.07;;;;;;;;;;5084622;28;20028;-65
2021/01/31 00:41:32;;;;;;;9.43;4.25;;;;;;;;;;5086004;28;20027;-65
2021/01/31 00:43:57;;;;;;;7.13;3.78;;;;;;;;;;5084892;28;20035;-65
2021/01/31 00:46:23;;;;;;;7.00;3.90;;;;;;;;;;5084230;28;20020;-64
2021/01/31 00:48:48;;;;;;;8.55;4.15;;;;;;;;;;5086576;28;20124;-65
2021/01/31 00:51:13;;;;;;;7.60;4.20;;;;;;;;;;5085275;28;20062;-65
2021/01/31 00:53:38;;;;;;;6.18;3.83;;;;;;;;;;5086032;28;20258;-64
2021/01/31 00:56:03;;;;;;;11.20;4.43;;;;;;;;;;5087466;28;20501;-64
2021/01/31 00:58:29;;;;;;;10.23;4.40;;;;;;;;;;5089880;28;20032;-65
2021/01/31 01:00:54;;;;;;;7.37;4.20;;;;;;;;;;5090077;28;20119;-65
2021/01/31 01:03:19;;;;;;;8.40;4.18;;;;;;;;;;5088836;28;20262;-65
2021/01/31 01:05:44;;;;;;;6.10;3.92;;;;;;;;;;5087898;28;20116;-65
2021/01/31 01:08:09;;;;;;;7.50;4.22;;;;;;;;;;5088078;28;20036;-64
2021/01/31 01:10:35;;;;;;;7.93;3.60;;;;;;;;;;5089117;28;20024;-65
2021/01/31 01:13:02;;;;;;;7.68;4.10;;;;;;;;;;5090014;28;20016;-65
2021/01/31 01:15:28;;;;;;;6.10;3.88;;;;;;;;;;5088420;28;20016;-64
2021/01/31 01:17:54;;;;;;;7.22;3.85;;;;;;;;;;5088741;28;20024;-64
2021/01/31 01:20:19;;;;;;;9.30;4.25;;;;;;;;;;5088820;28;20545;-65
2021/01/31 01:22:45;;;;;;;8.07;4.20;;;;;;;;;;5089132;28;20056;-65
2021/01/31 01:25:11;;;;;;;7.63;4.68;;;;;;;;;;5087742;28;20028;-65
2021/01/31 01:27:37;;;;;;;7.75;4.78;;;;;;;;;;5089375;28;20051;-65
2021/01/31 01:30:03;;;;;;;7.45;4.15;;;;;;;;;;5088812;28;21391;-64
2021/01/31 01:32:28;;;;;;;9.30;4.50;;;;;;;;;;5088748;28;20104;-64
2021/01/31 01:34:54;;;;;;;6.63;4.10;;;;;;;;;;5088954;28;20107;-65
2021/01/31 01:37:19;;;;;;;9.27;4.20;;;;;;;;;;5088393;28;20035;-65
2021/01/31 01:39:44;;;;;;;7.30;4.60;;;;;;;;;;5088947;28;20024;-65
2021/01/31 01:42:10;;;;;;;8.10;4.43;;;;;;;;;;5087670;28;20062;-66
2021/01/31 01:44:36;;;;;;;10.43;3.95;;;;;;;;;;5088367;28;20032;-66
2021/01/31 01:47:03;;;;;;;10.98;4.72;;;;;;;;;;5088355;28;20069;-64
2021/01/31 01:49:30;;;;;;;7.55;4.30;;;;;;;;;;5089020;28;20028;-64
2021/01/31 01:51:57;;;;;;;7.13;3.85;;;;;;;;;;5088115;28;20669;-65
2021/01/31 01:54:27;;;;;;;6.97;3.72;;;;;;;;;;5087697;28;20111;-66
2021/01/31 01:56:54;;;;;;;8.02;4.68;;;;;;;;;;5088710;28;20436;-65
2021/01/31 01:59:19;;;;;;;8.10;4.63;;;;;;;;;;5088718;28;20383;-65
2021/01/31 02:01:51;;;;;;;7.80;4.28;;;;;;;;;;5089978;28;20016;-66
2021/01/31 02:04:16;;;;;;;10.70;4.97;;;;;;;;;;5093014;28;20043;-66
2021/01/31 02:06:41;;;;;;;9.38;4.28;;;;;;;;;;5088272;28;20066;-67
2021/01/31 02:09:07;;;;;;;9.05;4.45;;;;;;;;;;5087465;28;20051;-65
2021/01/31 02:11:32;;;;;;;8.65;4.78;;;;;;;;;;5087516;28;20488;-65
2021/01/31 02:16:24;;;;;;;8.50;4.65;;;;;;;;;;5100706;22;20651;-92
2021/01/31 02:19:02;;;;;;;9.45;5.15;;;;;;;;;;5063108;28;20024;-92
2021/01/31 02:21:45;;;;;;;10.80;4.32;;;;;;;;;;5079504;22;20423;-63
2021/01/31 02:24:35;;;;;;;8.95;4.28;;;;;;;;;;5065893;28;20111;-65
2021/01/31 02:27:06;;;;;;;11.48;5.15;;;;;;;;;;5060550;28;20090;-64
2021/01/31 02:29:37;;;;;;;11.77;4.85;;;;;;;;;;5049423;28;20032;-64
2021/01/31 02:32:08;;;;;;;11.63;5.18;;;;;;;;;;5048511;28;20102;-65
2021/01/31 02:34:53;;;;;;;8.98;5.07;;;;;;;;;;5047016;28;20017;-64
2021/01/31 02:37:23;;;;;;;8.60;5.07;;;;;;;;;;5047361;28;20105;-64
2021/01/31 02:39:50;;;;;;;13.52;5.70;;;;;;;;;;5047011;28;20033;-64
2021/01/31 02:42:21;;;;;;;14.48;5.25;;;;;;;;;;5045841;28;20028;-64
2021/01/31 02:44:56;;;;;;;10.15;5.45;;;;;;;;;;5028715;28;20465;-64
2021/01/31 02:47:23;;;;;;;10.23;4.90;;;;;;;;;;5046493;28;20397;-64
2021/01/31 02:49:56;;;;;;;9.77;4.90;;;;;;;;;;5047113;28;20542;-64
2021/01/31 02:52:21;;;;;;;10.95;6.25;;;;;;;;;;5047644;28;20025;-64
2021/01/31 02:54:51;;;;;;;13.10;5.57;;;;;;;;;;5047230;28;20024;-64
2021/01/31 02:57:18;;;;;;;11.15;5.68;;;;;;;;;;5046734;28;20033;-64
2021/01/31 02:59:48;;;;;;;10.95;5.60;;;;;;;;;;5046381;28;20040;-64
2021/01/31 03:02:18;;;;;;;12.43;5.93;;;;;;;;;;5046513;28;20134;-64
2021/01/31 03:05:02;;;;;;;13.15;6.50;;;;;;;;;;5046574;28;20320;-64
2021/01/31 03:07:53;;;;;;;11.75;6.20;;;;;;;;;;5047206;28;20502;-64
2021/01/31 03:10:27;;;;;;;12.15;6.50;;;;;;;;;;5042478;28;20045;-64
2021/01/31 03:12:56;;;;;;;12.35;6.28;;;;;;;;;;5047247;28;20033;-64
2021/01/31 03:15:24;;;;;;;17.73;7.23;;;;;;;;;;5045900;28;20033;-64
2021/01/31 03:17:49;;;;;;;12.65;6.80;;;;;;;;;;5044719;28;20481;-64
2021/01/31 03:20:20;;;;;;;16.90;8.05;;;;;;;;;;5045836;28;20078;-64
2021/01/31 03:22:53;;;;;;;17.30;7.50;;;;;;;;;;5044902;28;20286;-64
2021/01/31 03:25:42;;;;;;;13.55;6.75;;;;;;;;;;5045856;28;20103;-64
2021/01/31 03:28:07;;;;;;;12.88;6.45;;;;;;;;;;5037978;28;20489;-64
2021/01/31 03:30:32;;;;;;;13.30;6.60;;;;;;;;;;5046335;28;20065;-64
2021/01/31 03:33:03;;;;;;;15.10;6.78;;;;;;;;;;5046893;28;20052;-64
2021/01/31 03:35:30;;;;;;;14.40;7.20;;;;;;;;;;5046534;28;20025;-64
2021/01/31 03:38:09;;;;;;;16.70;7.10;;;;;;;;;;5046504;28;20065;-64
2021/01/31 03:40:35;;;;;;;16.63;6.50;;;;;;;;;;5045528;28;20098;-64
2021/01/31 03:43:00;;;;;;;16.20;7.43;;;;;;;;;;5047188;28;20478;-64
2021/01/31 03:45:34;;;;;;;18.52;7.47;;;;;;;;;;5046889;28;20048;-64
2021/01/31 03:48:03;;;;;;;12.50;6.45;;;;;;;;;;5045802;28;20116;-65
2021/01/31 03:50:28;;;;;;;14.10;6.40;;;;;;;;;;5028309;28;20033;-64
2021/01/31 03:52:53;;;;;;;15.32;7.20;;;;;;;;;;5046073;28;20451;-64
2021/01/31 03:55:18;;;;;;;14.15;7.03;;;;;;;;;;5044945;28;20066;-64
2021/01/31 03:57:48;;;;;;;14.35;6.25;;;;;;;;;;5046023;28;20024;-64
2021/01/31 04:00:40;;;;;;;19.65;6.70;;;;;;;;;;5045791;28;20075;-64
2021/01/31 04:03:40;;;;;;;13.35;7.35;;;;;;;;;;5029844;28;20032;-64
2021/01/31 04:06:06;;;;;;;;;;;;;;;;;;4983959;28;20019;-64
2021/01/31 04:08:32;;;;;;;13.20;6.18;;;;;;;;;;5032370;28;19913;-64
2021/01/31 04:10:57;;;;;;;14.75;7.00;;;;;;;;;;5045866;28;20025;-64
2021/01/31 04:13:22;;;;;;;16.30;7.47;;;;;;;;;;5045716;28;20113;-64
2021/01/31 04:15:49;;;;;;;16.70;7.80;;;;;;;;;;5045754;28;20020;-66
2021/01/31 04:18:15;;;;;;;15.07;7.78;;;;;;;;;;5045874;28;20029;-64
2021/01/31 04:20:40;;;;;;;13.38;6.18;;;;;;;;;;5044152;28;20051;-64
2021/01/31 04:23:06;;;;;;;14.88;5.75;;;;;;;;;;5046156;28;20112;-64
2021/01/31 04:25:31;;;;;;;17.08;6.47;;;;;;;;;;5045811;28;20052;-64
2021/01/31 04:27:56;;;;;;;13.20;6.65;;;;;;;;;;5046249;28;20021;-64
2021/01/31 04:30:22;;;;;;;14.25;7.25;;;;;;;;;;5046422;28;20025;-64
2021/01/31 04:32:47;;;;;;;16.42;7.25;;;;;;;;;;5047689;28;20030;-64
2021/01/31 04:35:13;;;;;;;18.35;8.50;;;;;;;;;;5049397;28;20231;-64
2021/01/31 04:37:38;;;;;;;18.00;8.70;;;;;;;;;;5050157;28;20052;-64
2021/01/31 04:40:04;;;;;;;17.27;9.02;;;;;;;;;;5049482;28;20021;-64
2021/01/31 04:42:30;;;;;;;17.17;7.70;;;;;;;;;;5048798;28;20029;-64
2021/01/31 04:44:55;;;;;;;20.25;8.63;;;;;;;;;;5048731;28;20033;-64
2021/01/31 04:47:23;;;;;;;21.35;8.60;;;;;;;;;;5049360;28;20020;-64
2021/01/31 04:49:56;;;;;;;18.88;9.27;;;;;;;;;;5047644;28;20020;-64
2021/01/31 04:52:33;;;;;;;21.95;8.60;;;;;;;;;;5049991;28;20078;-64
2021/01/31 04:55:10;;;;;;;18.50;7.50;;;;;;;;;;5046111;28;20025;-64
2021/01/31 04:57:40;;;;;;;12.32;6.18;;;;;;;;;;5048738;28;20017;-63
2021/01/31 05:00:08;;;;;;;18.75;8.45;;;;;;;;;;5050978;28;20496;-64
2021/01/31 05:02:39;;;;;;;19.13;8.77;;;;;;;;;;5049955;28;20374;-63
2021/01/31 05:05:12;;;;;;;19.35;10.25;;;;;;;;;;5047925;28;20017;-63
2021/01/31 05:07:41;;;;;;;24.02;9.98;;;;;;;;;;5048701;28;20465;-64
2021/01/31 05:10:06;;;;;;;19.95;8.75;;;;;;;;;;5049181;28;20065;-65
2021/01/31 05:12:50;;;;;;;20.80;9.43;;;;;;;;;;5048976;28;20104;-64
2021/01/31 05:15:27;;;;;;;21.33;9.10;;;;;;;;;;5048238;28;20059;-63
2021/01/31 05:17:53;;;;;;;20.15;9.20;;;;;;;;;;5048523;28;20017;-63
2021/01/31 05:20:22;;;;;;;19.60;8.27;;;;;;;;;;5047148;28;20021;-64
2021/01/31 05:22:50;;;;;;;18.70;8.88;;;;;;;;;;5029747;28;20052;-63
2021/01/31 05:25:16;;;;;;;23.27;8.90;;;;;;;;;;5046832;28;20103;-63
2021/01/31 05:27:42;;;;;;;23.02;9.43;;;;;;;;;;5048019;28;20040;-63
2021/01/31 05:30:08;;;;;;;17.80;8.38;;;;;;;;;;5047550;28;20021;-63
2021/01/31 05:32:53;;;;;;;22.98;9.68;;;;;;;;;;5049053;28;20020;-63
2021/01/31 05:35:22;;;;;;;17.58;9.00;;;;;;;;;;5049060;28;20025;-64
2021/01/31 05:37:47;;;;;;;21.13;9.50;;;;;;;;;;5047416;28;20156;-64
2021/01/31 05:40:25;;;;;;;20.00;9.32;;;;;;;;;;5048728;28;20106;-64
2021/01/31 05:42:50;;;;;;;20.10;8.18;;;;;;;;;;5048411;28;20025;-64
2021/01/31 05:45:18;;;;;;;18.65;8.95;;;;;;;;;;5048422;28;20504;-64
2021/01/31 05:47:44;;;;;;;17.33;7.95;;;;;;;;;;5047132;28;20020;-64
2021/01/31 05:50:23;;;;;;;20.45;8.95;;;;;;;;;;5047477;28;20389;-64
2021/01/31 05:52:49;;;;;;;23.63;8.67;;;;;;;;;;5048829;28;20036;-64
2021/01/31 05:55:34;;;;;;;20.98;8.90;;;;;;;;;;5048667;28;20267;-64
2021/01/31 05:58:12;;;;;;;16.60;8.25;;;;;;;;;;5047434;28;20063;-64
2021/01/31 06:00:38;;;;;;;17.83;7.45;;;;;;;;;;5048482;28;20531;-64
2021/01/31 06:03:04;;;;;;;19.98;9.10;;;;;;;;;;5047506;28;20021;-64
2021/01/31 06:05:30;;;;;;;21.98;9.63;;;;;;;;;;5046910;28;20025;-64
2021/01/31 06:08:05;;;;;;;22.33;9.68;;;;;;;;;;5047508;28;20017;-64
2021/01/31 06:10:34;;;;;;;19.35;8.73;;;;;;;;;;5048273;28;20108;-64
2021/01/31 06:13:08;;;;;;;23.77;9.48;;;;;;;;;;5047912;28;20173;-64
2021/01/31 06:15:33;;;;;;;21.02;8.30;;;;;;;;;;5047994;28;20425;-64
2021/01/31 06:18:04;;;;;;;10.32;4.63;;;;;;;;;;5047606;28;20028;-64
2021/01/31 06:20:30;;;;;;;9.50;4.55;;;;;;;;;;5049804;28;20477;-64
2021/01/31 06:22:56;;;;;;;20.63;8.52;;;;;;;;;;5043291;28;20430;-64
2021/01/31 06:25:27;;;;;;;20.25;8.95;;;;;;;;;;5047367;28;20060;-64
2021/01/31 06:27:57;;;;;;;19.42;8.38;;;;;;;;;;5047337;28;20524;-64
2021/01/31 06:30:28;;;;;;;22.63;10.43;;;;;;;;;;5047708;28;20036;-64
2021/01/31 06:32:53;;;;;;;;;;;;;;;;;;5048331;28;20028;-64
2021/01/31 06:35:19;;;;;;;22.13;8.90;;;;;;;;;;5048206;28;19936;-64
2021/01/31 06:37:56;;;;;;;21.27;9.60;;;;;;;;;;5046621;28;20021;-63
2021/01/31 06:40:28;;;;;;;15.77;6.15;;;;;;;;;;5047059;28;20108;-64
2021/01/31 06:43:14;;;;;;;19.95;9.20;;;;;;;;;;5048065;28;20444;-64
2021/01/31 06:45:44;;;;;;;20.77;9.90;;;;;;;;;;5045424;28;20021;-64
2021/01/31 06:48:09;;;;;;;;;;;;;;;;;;5047718;28;20032;-64
2021/01/31 06:50:53;;;;;;;19.88;8.73;;;;;;;;;;5047012;28;19916;-64
2021/01/31 06:53:25;;;;;;;22.70;8.80;;;;;;;;;;5046554;28;20017;-64
2021/01/31 06:56:01;;;;;;;19.95;8.60;;;;;;;;;;5045827;28;20025;-64
2021/01/31 06:58:35;;;;;;;25.88;9.38;;;;;;;;;;5045824;28;20477;-64
2021/01/31 07:01:09;;;;;;;19.23;9.30;;;;;;;;;;5046149;28;20618;-64
2021/01/31 07:03:51;;;;;;;20.65;8.52;;;;;;;;;;5046293;28;20123;-64
2021/01/31 07:06:20;;;;;;;20.73;8.32;;;;;;;;;;5046253;28;20040;-65
2021/01/31 07:09:07;;;;;;;27.85;10.13;;;;;;;;;;5046042;28;20021;-65
2021/01/31 07:11:35;;;;;;;22.75;10.85;;;;;;;;;;5028923;28;20045;-65
2021/01/31 07:14:09;;;;;;;23.52;10.38;;;;;;;;;;5046446;28;20025;-65
2021/01/31 07:16:54;;;;;;;21.83;9.63;;;;;;;;;;5046536;28;20095;-65
2021/01/31 07:19:25;;;;;;;22.38;9.35;;;;;;;;;;5044955;28;20035;-65
2021/01/31 07:21:55;;;;;;;25.08;11.38;;;;;;;;;;5045427;28;20025;-65
2021/01/31 07:24:24;;;;;;;32.38;12.30;;;;;;;;;;5046356;28;20036;-65
2021/01/31 07:26:57;;;;;;;20.17;9.57;;;;;;;;;;5046893;28;20025;-65
2021/01/31 07:29:28;;;;;;;21.17;9.98;;;;;;;;;;5046726;28;20595;-65
2021/01/31 07:31:53;;;;;;;24.38;11.00;;;;;;;;;;5046313;28;20029;-65
2021/01/31 07:34:26;;;;;;;24.25;10.68;;;;;;;;;;5046634;28;20477;-65
2021/01/31 07:37:03;;;;;;;21.05;10.25;;;;;;;;;;5044995;28;20028;-64
2021/01/31 07:39:32;;;;;;;25.58;10.60;;;;;;;;;;5046769;28;20250;-64
2021/01/31 07:41:57;;;;;;;31.10;11.25;;;;;;;;;;5044817;28;20107;-64
2021/01/31 07:44:27;;;;;;;24.00;10.90;;;;;;;;;;5043812;28;20112;-64
2021/01/31 07:46:59;;;;;;;24.95;10.93;;;;;;;;;;5044325;28;20036;-64
2021/01/31 07:49:25;;;;;;;20.45;10.43;;;;;;;;;;5044651;28;20067;-64
2021/01/31 07:51:50;;;;;;;25.65;11.05;;;;;;;;;;5042669;28;20644;-65
2021/01/31 07:54:29;;;;;;;22.77;11.07;;;;;;;;;;5043729;28;20103;-64
2021/01/31 07:56:54;;;;;;;19.42;9.55;;;;;;;;;;5042508;28;20298;-64
2021/01/31 07:59:22;;;;;;;20.27;9.60;;;;;;;;;;5025808;28;20493;-65
2021/01/31 08:01:52;;;;;;;22.70;9.52;;;;;;;;;;5041899;28;20032;-64
2021/01/31 08:04:17;;;;;;;19.38;10.32;;;;;;;;;;5043431;28;20921;-64
2021/01/31 08:06:57;;;;;;;17.13;9.52;;;;;;;;;;5041578;28;20123;-64
2021/01/31 08:09:25;;;;;;;16.40;6.70;;;;;;;;;;5043608;28;20024;-64
2021/01/31 08:11:55;;;;;;;18.85;9.60;;;;;;;;;;5043387;28;20028;-64
2021/01/31 08:14:39;;;;;;;18.30;9.90;;;;;;;;;;5044365;28;20041;-64
2021/01/31 08:17:04;;;;;;;18.48;7.60;;;;;;;;;;5033132;28;20056;-64
2021/01/31 08:19:31;;;;;;;21.48;9.90;;;;;;;;;;5043581;28;20036;-64
2021/01/31 08:21:57;;;;;;;16.85;8.15;;;;;;;;;;5043795;28;20497;-64
2021/01/31 08:24:52;;;;;;;15.45;8.68;;;;;;;;;;5042573;28;20025;-65
2021/01/31 08:27:29;;;;;;;16.92;8.77;;;;;;;;;;5031202;28;20089;-65
2021/01/31 08:30:11;;;;;;;16.25;8.25;;;;;;;;;;5043864;28;20033;-65
2021/01/31 08:32:56;;;;;;;13.98;7.72;;;;;;;;;;5061609;22;20071;-67
2021/01/31 08:35:24;;;;;;;16.10;8.05;;;;;;;;;;5064504;28;20035;-67
2021/01/31 08:37:50;;;;;;;17.70;9.70;;;;;;;;;;5063638;28;20362;-67
2021/01/31 08:40:16;;;;;;;15.98;8.73;;;;;;;;;;5060912;28;20024;-67
2021/01/31 08:42:46;;;;;;;18.17;8.68;;;;;;;;;;5062948;28;20484;-67
2021/01/31 08:45:11;;;;;;;17.00;9.40;;;;;;;;;;5063942;28;20062;-67
2021/01/31 08:47:40;;;;;;;14.50;8.27;;;;;;;;;;5064422;28;20020;-67
2021/01/31 08:50:08;;;;;;;16.35;8.65;;;;;;;;;;5064231;28;20290;-67
2021/01/31 08:52:33;;;;;;;8.27;5.20;;;;;;;;;;5063058;28;20028;-67
2021/01/31 08:54:59;;;;;;;16.83;9.03;;;;;;;;;;5063317;28;20115;-68
2021/01/31 08:57:26;;;;;;;13.93;8.07;;;;;;;;;;5063155;28;20306;-67
2021/01/31 08:59:51;;;;;;;16.85;9.00;;;;;;;;;;5063288;28;20040;-67
2021/01/31 09:02:16;;;;;;;13.10;8.35;;;;;;;;;;5064320;28;20052;-68
2021/01/31 09:04:45;;;;;;;14.68;8.68;;;;;;;;;;5065272;28;20028;-68
2021/01/31 09:07:12;;;;;;;8.85;4.40;;;;;;;;;;5065142;28;20040;-68
2021/01/31 09:09:40;;;;;;;12.68;6.22;;;;;;;;;;5064599;28;20048;-68
2021/01/31 09:12:07;;;;;;;14.27;8.05;;;;;;;;;;5065165;28;20128;-67
2021/01/31 09:14:35;;;;;;;13.10;6.35;;;;;;;;;;5065093;28;20036;-67
2021/01/31 09:17:11;;;;;;;14.80;8.20;;;;;;;;;;5066821;28;20020;-67
2021/01/31 09:19:37;;;;;;;13.45;8.82;;;;;;;;;;5069033;28;20028;-68
2021/01/31 09:22:05;;;;;;;9.60;4.78;;;;;;;;;;5069643;28;20032;-68
2021/01/31 09:24:35;;;;;;;8.10;4.28;;;;;;;;;;5068811;28;20028;-68
2021/01/31 09:27:00;;;;;;;13.73;7.20;;;;;;;;;;5068937;28;20020;-68
2021/01/31 09:29:27;;;;;;;15.63;9.05;;;;;;;;;;5069329;28;20497;-68
2021/01/31 09:32:00;;;;;;;14.35;7.90;;;;;;;;;;5069051;28;20026;-68
2021/01/31 09:34:26;;;;;;;8.45;3.95;;;;;;;;;;5068868;28;20031;-68
2021/01/31 09:37:08;;;;;;;11.23;5.57;;;;;;;;;;5067725;28;20028;-68
2021/01/31 09:39:34;;;;;;;16.73;10.35;;;;;;;;;;5067333;28;20583;-68
2021/01/31 09:42:00;;;;;;;11.20;4.90;;;;;;;;;;5069632;28;20035;-68
2021/01/31 09:44:26;;;;;;;19.35;9.95;;;;;;;;;;5069351;28;20421;-68
2021/01/31 09:46:51;;;;;;;11.75;6.35;;;;;;;;;;5066496;28;20031;-69
2021/01/31 09:49:22;;;;;;;12.98;6.35;;;;;;;;;;5066175;28;20035;-68
2021/01/31 09:51:47;;;;;;;14.73;8.10;;;;;;;;;;5068714;28;20028;-68
2021/01/31 09:54:12;;;;;;;12.57;6.60;;;;;;;;;;5067291;28;20029;-68
2021/01/31 09:56:43;;;;;;;14.50;6.13;;;;;;;;;;5064819;28;20039;-68
2021/01/31 09:59:09;;;;;;;;;;;;;;;;;;5069377;28;20259;-68
2021/01/31 10:01:34;;;;;;;12.55;6.40;;;;;;;;;;5066220;28;20390;-68
2021/01/31 10:03:59;;;;;;;13.45;6.97;;;;;;;;;;5067924;28;20028;-68
2021/01/31 10:06:26;;;;;;;13.05;7.28;;;;;;;;;;5065918;28;20024;-68
2021/01/31 10:08:53;;;;;;;12.77;5.55;;;;;;;;;;5066024;28;20036;-68
2021/01/31 10:11:25;;;;;;;12.32;5.75;;;;;;;;;;5066477;28;20460;-68
2021/01/31 10:13:50;;;;;;;21.40;8.90;;;;;;;;;;5068078;28;20023;-68
2021/01/31 10:16:17;;;;;;;18.97;9.77;;;;;;;;;;5067570;28;20024;-68
2021/01/31 10:18:42;;;;;;;18.80;8.77;;;;;;;;;;5066949;28;20278;-68
2021/01/31 10:21:21;;;;;;;21.25;9.18;;;;;;;;;;5068205;28;20404;-68
2021/01/31 10:23:51;;;;;;;14.60;7.90;;;;;;;;;;5066981;28;20384;-68
2021/01/31 10:26:19;;;;;;;17.38;7.40;;;;;;;;;;5064708;28;20392;-68
2021/01/31 10:28:46;;;;;;;9.40;4.75;;;;;;;;;;5065536;28;20388;-68
2021/01/31 10:31:25;;;;;;;13.23;6.32;;;;;;;;;;5064118;28;20059;-68
2021/01/31 10:33:51;;;;;;;16.35;8.30;;;;;;;;;;5060415;28;20464;-68
2021/01/31 10:36:26;;;;;;;11.98;6.15;;;;;;;;;;5064900;28;20032;-68
2021/01/31 10:39:02;;;;;;;15.65;7.13;;;;;;;;;;5063479;28;20029;-68
2021/01/31 10:41:28;;;;;;;18.70;7.90;;;;;;;;;;5063604;28;20048;-67
2021/01/31 10:43:56;;;;;;;10.20;5.25;;;;;;;;;;5065955;28;20016;-67
2021/01/31 10:46:21;;;;;;;9.82;5.03;;;;;;;;;;5064373;28;20108;-67
2021/01/31 10:48:46;;;;;;;15.73;6.78;;;;;;;;;;5064510;28;20142;-67
2021/01/31 10:51:11;;;;;;;16.70;8.70;;;;;;;;;;5067174;28;20017;-68
2021/01/31 10:53:36;;;;;;;15.23;6.82;;;;;;;;;;5067424;28;20013;-68
2021/01/31 10:56:02;;;;;;;16.07;7.83;;;;;;;;;;5066600;28;20519;-68
2021/01/31 10:58:27;;;;;;;8.90;4.93;;;;;;;;;;5066599;28;20258;-68
2021/01/31 11:00:52;;;;;;;15.37;9.20;;;;;;;;;;5067040;28;20024;-68
2021/01/31 11:03:17;;;;;;;10.98;5.65;;;;;;;;;;5067314;28;20739;-68
2021/01/31 11:05:43;;;;;;;9.27;4.90;;;;;;;;;;5067123;28;20487;-68
2021/01/31 11:08:08;;;;;;;13.02;7.00;;;;;;;;;;5067570;28;20662;-68
2021/01/31 11:10:33;;;;;;;17.27;9.17;;;;;;;;;;5068026;28;20064;-67
2021/01/31 11:12:58;;;;;;;14.03;7.97;;;;;;;;;;5065637;28;20283;-67
2021/01/31 11:15:23;;;;;;;12.88;7.63;;;;;;;;;;5066670;28;20338;-67
2021/01/31 11:17:48;;;;;;;12.85;5.57;;;;;;;;;;5066568;28;20020;-67
2021/01/31 11:20:14;;;;;;;9.73;5.13;;;;;;;;;;5066358;28;20415;-67
2021/01/31 11:22:39;;;;;;;15.55;7.57;;;;;;;;;;5066886;28;20263;-67
2021/01/31 11:25:05;;;;;;;12.23;6.03;;;;;;;;;;5066589;28;20111;-68
2021/01/31 11:27:30;;;;;;;13.00;7.03;;;;;;;;;;5066001;28;20029;-68
2021/01/31 11:29:55;;;;;;;6.20;3.95;;;;;;;;;;5065944;28;20115;-67
2021/01/31 11:32:20;;;;;;;14.45;6.90;;;;;;;;;;5066663;28;20086;-68
2021/01/31 11:34:46;;;;;;;9.10;5.15;;;;;;;;;;5066035;28;20074;-67
2021/01/31 11:37:11;;;;;;;9.98;3.60;;;;;;;;;;5064559;28;20495;-68
2021/01/31 11:39:36;;;;;;;12.75;6.03;;;;;;;;;;5065872;28;20028;-68
2021/01/31 11:42:01;;;;;;;12.07;5.82;;;;;;;;;;5066230;28;20040;-68
2021/01/31 11:44:26;;;;;;;8.63;3.97;;;;;;;;;;5065783;28;20031;-67
2021/01/31 11:46:52;;;;;;;7.97;3.97;;;;;;;;;;5068604;28;20122;-68
2021/01/31 11:49:17;;;;;;;14.48;5.25;;;;;;;;;;5066381;28;20286;-68
2021/01/31 11:51:43;;;;;;;12.13;5.28;;;;;;;;;;5066556;28;20122;-68
2021/01/31 11:54:08;;;;;;;14.15;6.68;;;;;;;;;;5066618;28;20475;-68
2021/01/31 11:56:35;;;;;;;9.85;5.22;;;;;;;;;;5066251;28;20028;-67
2021/01/31 11:59:00;;;;;;;11.68;6.25;;;;;;;;;;5065764;28;20024;-68
2021/01/31 12:01:25;;;;;;;8.65;4.40;;;;;;;;;;5066148;28;20036;-68
2021/01/31 12:03:51;;;;;;;10.52;6.07;;;;;;;;;;5066086;28;20020;-67
2021/01/31 12:06:16;;;;;;;10.48;5.47;;;;;;;;;;5047603;28;20709;-68
2021/01/31 12:08:41;;;;;;;9.95;4.72;;;;;;;;;;5066020;28;20119;-67
2021/01/31 12:11:07;;;;;;;10.88;5.82;;;;;;;;;;5066307;28;20050;-68
2021/01/31 12:13:32;;;;;;;9.85;4.55;;;;;;;;;;5065541;28;20698;-67
2021/01/31 12:15:57;;;;;;;8.27;4.30;;;;;;;;;;5065464;28;20024;-68
2021/01/31 12:18:23;;;;;;;9.25;4.80;;;;;;;;;;5065810;28;20021;-67
2021/01/31 12:20:48;;;;;;;10.77;5.05;;;;;;;;;;5065949;28;20025;-69
2021/01/31 12:23:13;;;;;;;10.77;5.50;;;;;;;;;;5066165;28;20103;-68
2021/01/31 12:25:38;;;;;;;14.17;5.63;;;;;;;;;;5066152;28;20044;-68
2021/01/31 12:28:04;;;;;;;11.07;5.80;;;;;;;;;;5065972;28;20263;-68
2021/01/31 12:30:31;;;;;;;10.18;4.97;;;;;;;;;;5065506;28;20271;-68
2021/01/31 12:32:56;;;;;;;8.00;3.58;;;;;;;;;;5066035;28;20052;-68
2021/01/31 12:35:22;;;;;;;10.02;5.10;;;;;;;;;;5063565;28;20105;-67
2021/01/31 12:37:47;;;;;;;10.13;5.13;;;;;;;;;;5064359;28;20134;-67
2021/01/31 12:40:14;;;;;;;11.18;4.75;;;;;;;;;;5066872;28;20511;-66
2021/01/31 12:42:39;;;;;;;10.45;6.07;;;;;;;;;;5065307;28;20038;-68
2021/01/31 12:45:05;;;;;;;10.83;5.70;;;;;;;;;;5066627;28;20021;-68
2021/01/31 12:47:30;;;;;;;6.85;3.72;;;;;;;;;;5065009;28;20343;-67
2021/01/31 12:49:56;;;;;;;10.50;4.87;;;;;;;;;;5064942;28;20032;-68
2021/01/31 12:52:21;;;;;;;10.07;5.28;;;;;;;;;;5069371;28;20276;-67
2021/01/31 12:54:47;;;;;;;11.18;4.97;;;;;;;;;;5072075;28;20052;-68
2021/01/31 12:57:12;;;;;;;10.88;4.97;;;;;;;;;;5069849;28;20111;-68
2021/01/31 12:59:37;;;;;;;11.95;5.28;;;;;;;;;;5069519;28;20473;-67
2021/01/31 13:02:02;;;;;;;8.67;3.80;;;;;;;;;;5069125;28;20031;-68
2021/01/31 13:04:28;;;;;;;7.60;4.22;;;;;;;;;;5069393;28;20251;-68
2021/01/31 13:06:53;;;;;;;11.60;3.85;;;;;;;;;;5069401;28;20090;-68
2021/01/31 13:09:18;;;;;;;6.20;3.63;;;;;;;;;;5069025;28;20024;-68
2021/01/31 13:11:43;;;;;;;7.50;3.33;;;;;;;;;;5069214;28;20267;-68
2021/01/31 13:14:08;;;;;;;10.20;5.15;;;;;;;;;;5068446;28;20430;-68
2021/01/31 13:16:34;;;;;;;11.70;4.80;;;;;;;;;;5068694;28;20032;-67
2021/01/31 13:18:59;;;;;;;9.85;3.05;;;;;;;;;;5068360;28;20103;-68
2021/01/31 13:21:24;;;;;;;10.95;5.35;;;;;;;;;;5068863;28;20052;-68
2021/01/31 13:23:49;;;;;;;10.43;6.07;;;;;;;;;;5068437;28;20050;-68
2021/01/31 13:26:15;;;;;;;10.32;5.63;;;;;;;;;;5068849;28;20031;-69
2021/01/31 13:28:40;;;;;;;6.22;3.70;;;;;;;;;;5068831;28;20025;-68
2021/01/31 13:31:05;;;;;;;8.07;3.95;;;;;;;;;;5068696;28;20754;-68
2021/01/31 13:33:30;;;;;;;4.88;2.63;;;;;;;;;;5068605;28;20037;-68
2021/01/31 13:35:55;;;;;;;8.87;4.90;;;;;;;;;;5067589;28;20541;-68
2021/01/31 13:38:21;;;;;;;7.28;3.58;;;;;;;;;;5067745;28;20316;-68
2021/01/31 13:40:46;;;;;;;3.83;2.40;;;;;;;;;;5068186;28;20017;-68
2021/01/31 13:43:12;;;;;;;8.40;4.00;;;;;;;;;;5068273;28;21862;-68
2021/01/31 13:45:37;;;;;;;8.48;3.97;;;;;;;;;;5069886;28;20020;-67
2021/01/31 13:48:02;;;;;;;6.78;3.30;;;;;;;;;;5068466;28;20392;-67
2021/01/31 13:50:27;;;;;;;8.48;5.75;;;;;;;;;;5068272;28;20289;-67
2021/01/31 13:52:52;;;;;;;6.95;4.05;;;;;;;;;;5068294;28;20017;-68
2021/01/31 13:55:18;;;;;;;8.70;4.82;;;;;;;;;;5068332;28;20529;-68
2021/01/31 13:57:43;;;;;;;7.63;3.70;;;;;;;;;;5068077;28;20062;-68
2021/01/31 14:00:09;;;;;;;8.93;4.75;;;;;;;;;;5069437;28;20047;-68
2021/01/31 14:02:35;;;;;;;7.85;4.28;;;;;;;;;;5067952;28;20423;-68
2021/01/31 14:05:00;;;;;;;10.70;4.07;;;;;;;;;;5068399;28;20085;-68
2021/01/31 14:07:25;;;;;;;10.30;5.18;;;;;;;;;;5067904;28;20031;-68
2021/01/31 14:09:50;;;;;;;6.68;2.50;;;;;;;;;;5066249;28;20031;-68
2021/01/31 14:12:15;;;;;;;9.68;5.57;;;;;;;;;;5067570;28;20103;-68
2021/01/31 14:14:41;;;;;;;8.23;4.20;;;;;;;;;;5067583;28;20033;-68
2021/01/31 14:17:06;;;;;;;5.32;3.42;;;;;;;;;;5067260;28;20460;-67
2021/01/31 14:19:31;;;;;;;7.72;3.25;;;;;;;;;;5067430;28;20024;-67
2021/01/31 14:21:56;;;;;;;13.75;5.80;;;;;;;;;;5066748;28;20028;-67
2021/01/31 14:24:22;;;;;;;13.93;5.37;;;;;;;;;;5067286;28;20400;-67
2021/01/31 14:26:47;;;;;;;11.02;5.38;;;;;;;;;;5067435;28;20342;-67
2021/01/31 14:29:13;;;;;;;8.82;4.95;;;;;;;;;;5067318;28;20028;-67
2021/01/31 14:31:38;;;;;;;8.98;4.78;;;;;;;;;;5068253;28;20509;-67
2021/01/31 14:34:35;;;;;;;10.80;5.17;;;;;;;;;;5104622;22;20060;-91
2021/01/31 14:37:11;;;;;;;6.90;3.35;;;;;;;;;;5081220;28;20644;-91
2021/01/31 14:39:37;;;;;;;7.25;3.30;;;;;;;;;;5064821;28;20506;-91
2021/01/31 14:42:23;;;;;;;12.85;6.38;;;;;;;;;;5062784;28;20043;-93